Beckenham, Australia

10:18 AM AWST on May 01, 2017 (GMT +0800)
Thornlie | | Change Station

Elev 56 ft 32.06 °S, 115.94 °E | Updated 14 seconds ago

Partly Cloudy
Partly Cloudy
68.7 °F
Feels Like 68.7 °F
N
2.7
Wind Variable Wind from NW
Gusts 4.9 mph

Today
High -- | Low -- °F
--% Chance of Precip.
Yesterday
High -- | Low -- °F
Precip. -- in
Pressure 30.27 in
Visibility 6.2 miles
Clouds Few 4500 ft
Mostly Cloudy 30000 ft
Dew Point 50 °F
Humidity 52%
Rainfall 0.00 in
Snow Depth Not available.
6:47 AM 5:38 PM
Waxing Crescent, 28% visible
METAR YPPH 010200Z 09015KT 9999 FEW045 BKN300 18/08 Q1025 NOSIG
Pressure 30.27 in
Visibility 6.2 miles
Clouds Few 4500 ft
Mostly Cloudy 30000 ft
Dew Point 50 °F
Humidity 52%
Rainfall 0.00 in
Snow Depth Not available.
6:47 AM 5:38 PM
Waxing Crescent, 28% visible
METAR YPPH 010200Z 09015KT 9999 FEW045 BKN300 18/08 Q1025 NOSIG

Get Severe Weather Alerts

Thanks for signing up!

Be on the lookout for a verification email in your inbox.

You'll start receiving the daily forecast at 8 AM.

×

10-Day Weather Forecast

×

Almanac

Astronomy

May. 01, 2017 Rise Set
Actual Time
Civil Twilight
Nautical Twilight
Astronomical Twilight
Moon
Length of Visible Light
Length of Day
Tomorrow will be .
, % of the Moon is Illuminated

Today's Extremes

Country Highs Country Lows

Community

WunderPhotos

WunderBlog® & News

Nearby

Air Quality

  Air Quality AQ Index Pollutant
Not available.

Snow Depth

Station Depth Elevation

Earthquake Activity

City Distance Mag. Time & Date
Minimum magnitude displayed is 2.5.

Coastal Water Temperatures

Place Temperature

Stations

Nearby Weather Stations

Station Location Temp. Windchill Dew Point Humidity Wind Precip. Elev Updated Type